createdAt,value
2023-01-29T00:02:14.777Z,101544.44
2023-01-29T00:04:46.443Z,101544.44
2023-01-29T00:07:15.104Z,101547.84
2023-01-29T00:09:44.665Z,101551.25
2023-01-29T00:12:13.947Z,101551.25
2023-01-29T00:14:42.422Z,101552.09
2023-01-29T00:17:10.428Z,101551.25
2023-01-29T00:19:37.036Z,101550.41
2023-01-29T00:22:03.809Z,101537.56
2023-01-29T00:24:30.387Z,101552.09
2023-01-29T00:26:57.083Z,101552.97
2023-01-29T00:29:23.641Z,101553.81
2023-01-29T00:31:50.440Z,101546.09
2023-01-29T00:34:17.268Z,101540.94
2023-01-29T00:36:45.638Z,101546.09
2023-01-29T00:39:12.428Z,101540.06
2023-01-29T00:41:59.080Z,101547.72
2023-01-29T00:44:45.635Z,101550.34
2023-01-29T00:47:32.181Z,101545.97
2023-01-29T00:50:00.664Z,101545.06
2023-01-29T00:52:28.873Z,101550.22
2023-01-29T00:54:58.535Z,101558.75
2023-01-29T00:57:27.525Z,101557.88
2023-01-29T00:59:54.582Z,101541.50
2023-01-29T01:02:41.858Z,101546.53
2023-01-29T01:05:14.338Z,101547.34
2023-01-29T01:07:41.444Z,101545.56
2023-01-29T01:10:28.458Z,101549.91
2023-01-29T01:12:58.487Z,101542.06
2023-01-29T01:15:28.921Z,101530.09
2023-01-29T01:17:58.000Z,101530.91
2023-01-29T01:20:27.594Z,101530.75
2023-01-29T01:22:56.923Z,101524.75
2023-01-29T01:25:27.001Z,101530.59
2023-01-29T01:27:57.729Z,101526.25
2023-01-29T01:30:27.183Z,101519.34
2023-01-29T01:32:55.685Z,101515.88
2023-01-29T01:35:24.493Z,101513.22
2023-01-29T01:37:52.665Z,101514.09
2023-01-29T01:40:24.555Z,101509.63
2023-01-29T01:42:55.900Z,101517.34
2023-01-29T01:45:35.702Z,101511.97
2023-01-29T01:53:27.020Z,101509.47
2023-01-29T01:56:00.432Z,101512.91
2023-01-29T01:58:33.502Z,101514.59
2023-01-29T02:01:01.487Z,101511.97
2023-01-29T02:03:51.438Z,101510.19
2023-01-29T02:06:37.941Z,101496.06
2023-01-29T02:09:31.654Z,101496.28
2023-01-29T02:11:58.396Z,101486.00
2023-01-29T02:14:25.515Z,101489.53
2023-01-29T02:16:52.304Z,101476.63
2023-01-29T02:19:35.705Z,101462.94
2023-01-29T02:22:12.387Z,101463.44
2023-01-29T02:25:09.898Z,101462.66
2023-01-29T02:30:41.207Z,101466.97
2023-01-29T02:38:45.903Z,101444.66
2023-01-29T02:43:59.727Z,101446.13
2023-01-29T02:49:25.154Z,101448.53
2023-01-29T02:52:02.844Z,101452.78
2023-01-29T02:54:43.850Z,101451.03
2023-01-29T02:57:20.832Z,101439.72
2023-01-29T03:00:07.292Z,101427.44
2023-01-29T03:02:43.333Z,101432.72
2023-01-29T03:05:17.648Z,101419.88
2023-01-29T03:07:52.397Z,101421.56
2023-01-29T03:10:25.311Z,101419.81
2023-01-29T03:12:57.792Z,101415.56
2023-01-29T03:15:31.263Z,101414.66
2023-01-29T03:18:06.129Z,101402.66
2023-01-29T03:20:38.847Z,101411.19
2023-01-29T03:23:13.644Z,101407.66
2023-01-29T03:26:02.392Z,101399.88
2023-01-29T03:28:50.412Z,101403.06
2023-01-29T03:31:38.532Z,101397.75
2023-01-29T03:34:16.667Z,101382.97
2023-01-29T03:36:50.677Z,101383.69
2023-01-29T03:39:17.648Z,101385.22
2023-01-29T03:41:51.856Z,101400.47
2023-01-29T03:47:05.028Z,101387.47
2023-01-29T03:49:39.905Z,101382.88
2023-01-29T03:52:18.053Z,101383.81
2023-01-29T03:55:10.858Z,101390.59
2023-01-29T03:57:45.655Z,101385.56
2023-01-29T04:00:25.995Z,101382.19
2023-01-29T04:03:07.981Z,101386.50
2023-01-29T04:05:58.725Z,101385.56
2023-01-29T04:08:30.421Z,101387.47
2023-01-29T04:11:02.931Z,101379.81
2023-01-29T04:13:33.834Z,101375.56
2023-01-29T04:16:04.381Z,101378.19
2023-01-29T04:18:31.547Z,101359.25
2023-01-29T04:21:00.528Z,101363.53
2023-01-29T04:23:27.893Z,101360.16
2023-01-29T04:26:29.111Z,101358.28
2023-01-29T04:32:20.076Z,101358.28
2023-01-29T04:35:21.894Z,101349.50
2023-01-29T04:40:39.592Z,101341.91
2023-01-29T04:43:15.307Z,101337.72
2023-01-29T04:54:23.639Z,101326.56
2023-01-29T04:59:33.861Z,101317.34
2023-01-29T05:02:02.592Z,101328.41
2023-01-29T05:04:33.274Z,101324.97
2023-01-29T05:07:05.139Z,101310.38
2023-01-29T05:09:33.312Z,101305.19
2023-01-29T05:12:01.131Z,101295.78
2023-01-29T05:14:31.133Z,101291.38
2023-01-29T05:17:01.728Z,101282.88
2023-01-29T05:19:28.370Z,101291.38
2023-01-29T05:21:55.574Z,101282.00
2023-01-29T05:24:24.714Z,101276.00
2023-01-29T05:27:13.512Z,101281.94
2023-01-29T05:29:45.440Z,101275.06
2023-01-29T05:32:12.634Z,101275.06
2023-01-29T05:34:39.428Z,101273.28
2023-01-29T05:37:06.182Z,101267.38
2023-01-29T05:39:33.263Z,101263.91
2023-01-29T05:42:00.188Z,101254.47
2023-01-29T05:44:26.833Z,101250.19
2023-01-29T05:46:53.599Z,101245.06
2023-01-29T05:49:20.735Z,101247.69
2023-01-29T05:51:47.518Z,101244.28
2023-01-29T05:54:14.602Z,101252.81
2023-01-29T05:56:41.297Z,101251.97
2023-01-29T05:59:07.971Z,101254.59
2023-01-29T06:01:34.801Z,101246.69
2023-01-29T06:04:01.834Z,101251.06
2023-01-29T06:06:28.502Z,101245.06
2023-01-29T06:08:56.373Z,101239.13
2023-01-29T06:11:23.406Z,101250.25
2023-01-29T06:13:50.593Z,101235.75
2023-01-29T06:16:17.532Z,101236.56
2023-01-29T06:18:44.320Z,101236.56
2023-01-29T06:21:13.872Z,101239.13
2023-01-29T06:23:40.855Z,101245.19
2023-01-29T06:26:11.083Z,101238.44
2023-01-29T06:28:38.696Z,101236.00
2023-01-29T06:31:37.224Z,101223.16
2023-01-29T06:33:53.832Z,101228.31
2023-01-29T06:36:20.641Z,101223.16
2023-01-29T06:38:47.571Z,101218.03
2023-01-29T06:41:18.170Z,101217.22
2023-01-29T06:43:45.710Z,101210.34
2023-01-29T06:46:12.312Z,101219.78
2023-01-29T06:48:39.264Z,101219.72
2023-01-29T06:51:08.371Z,101207.78
2023-01-29T06:53:36.248Z,101212.06
2023-01-29T06:56:03.792Z,101205.19
2023-01-29T06:58:30.626Z,101193.16
2023-01-29T07:01:09.513Z,101186.28
2023-01-29T07:03:36.830Z,101185.38
2023-01-29T07:06:04.494Z,101193.09
2023-01-29T07:08:31.336Z,101182.75
2023-01-29T07:11:00.741Z,101184.47
2023-01-29T07:13:27.787Z,101181.00
2023-01-29T07:15:54.403Z,101193.00
2023-01-29T07:18:21.086Z,101186.09
2023-01-29T07:20:47.732Z,101197.25
2023-01-29T07:23:15.574Z,101188.72
2023-01-29T07:25:42.581Z,101188.72
2023-01-29T07:28:09.459Z,101183.59
2023-01-29T07:30:36.376Z,101187.09
2023-01-29T07:33:07.583Z,101183.84
2023-01-29T07:35:43.596Z,101187.09
2023-01-29T07:38:11.287Z,101190.59
2023-01-29T07:40:38.325Z,101191.47
2023-01-29T07:43:07.420Z,101183.00
2023-01-29T07:45:36.462Z,101187.31
2023-01-29T07:48:05.289Z,101180.50
2023-01-29T07:50:33.859Z,101188.34
2023-01-29T07:53:00.942Z,101186.59
2023-01-29T07:55:28.070Z,101183.25
2023-01-29T07:57:59.850Z,101184.06
2023-01-29T08:00:27.071Z,101181.53
2023-01-29T08:02:53.798Z,101177.31
2023-01-29T08:05:20.898Z,101172.28
2023-01-29T08:08:05.765Z,101170.53
2023-01-29T08:10:33.848Z,101172.28
2023-01-29T08:13:01.816Z,101174.03
2023-01-29T08:15:29.577Z,101177.56
2023-01-29T08:20:43.494Z,101186.16
2023-01-29T08:23:15.556Z,101181.16
2023-01-29T08:25:42.292Z,101180.34
2023-01-29T08:28:09.955Z,101174.38
2023-01-29T08:30:36.786Z,101170.19
2023-01-29T08:33:04.918Z,101169.34
2023-01-29T08:35:31.795Z,101174.63
2023-01-29T08:38:02.500Z,101169.47
2023-01-29T08:40:33.252Z,101168.84
2023-01-29T08:43:03.031Z,101164.66
2023-01-29T08:45:34.613Z,101156.19
2023-01-29T08:48:01.434Z,101169.13
2023-01-29T08:50:30.718Z,101169.22
2023-01-29T08:52:59.385Z,101157.31
2023-01-29T08:55:27.153Z,101158.34
2023-01-29T08:57:54.567Z,101157.59
2023-01-29T09:00:21.792Z,101158.59
2023-01-29T09:02:48.486Z,101163.72
2023-01-29T09:05:15.654Z,101160.47
2023-01-29T09:07:42.877Z,101164.00
2023-01-29T09:10:10.662Z,101168.41
2023-01-29T09:12:37.329Z,101166.75
2023-01-29T09:15:04.370Z,101173.75
2023-01-29T09:17:30.997Z,101171.28
2023-01-29T09:19:58.933Z,101171.41
2023-01-29T09:22:25.636Z,101172.38
2023-01-29T09:24:52.682Z,101173.38
2023-01-29T09:27:19.490Z,101173.38
2023-01-29T09:29:46.591Z,101175.97
2023-01-29T09:32:13.214Z,101179.47
2023-01-29T09:34:39.787Z,101174.47
2023-01-29T09:37:06.973Z,101175.31
2023-01-29T09:39:33.565Z,101176.31
2023-01-29T09:47:20.677Z,101178.69
2023-01-29T09:49:52.398Z,101170.41
2023-01-29T09:52:26.336Z,101157.38
2023-01-29T09:57:42.294Z,101153.97
2023-01-29T10:00:14.751Z,101145.09
2023-01-29T10:14:39.700Z,101147.78
2023-01-29T10:20:26.747Z,101148.41
2023-01-29T10:25:50.366Z,101136.59
2023-01-29T10:28:20.965Z,101133.34
2023-01-29T10:30:50.907Z,101127.34
2023-01-29T10:33:24.949Z,101118.91
2023-01-29T10:35:57.832Z,101113.00
2023-01-29T10:47:11.100Z,101101.44
2023-01-29T10:52:55.098Z,101099.75
2023-01-29T11:00:54.836Z,101089.75
2023-01-29T11:03:29.164Z,101089.84
2023-01-29T11:08:41.054Z,101082.22
2023-01-29T11:11:13.078Z,101081.53
2023-01-29T11:13:47.585Z,101075.63
2023-01-29T11:16:15.062Z,101080.13
2023-01-29T11:18:52.590Z,101077.69
2023-01-29T11:21:19.638Z,101070.09
2023-01-29T11:23:47.174Z,101059.75
2023-01-29T11:26:19.316Z,101071.66
2023-01-29T11:28:48.963Z,101056.13
2023-01-29T11:34:16.973Z,101054.44
2023-01-29T11:36:45.302Z,101044.47
2023-01-29T11:42:03.727Z,101036.47
2023-01-29T11:49:54.042Z,101000.31
2023-01-29T11:52:24.139Z,101001.34
2023-01-29T11:54:55.797Z,100989.41
2023-01-29T11:57:27.683Z,100986.22
2023-01-29T11:59:57.283Z,100981.16
2023-01-29T12:02:36.636Z,100970.03
2023-01-29T12:05:14.561Z,100953.88
2023-01-29T12:07:43.795Z,100942.81
2023-01-29T12:15:49.142Z,100937.81
2023-01-29T12:21:12.249Z,100933.47
2023-01-29T12:24:07.665Z,100928.31
2023-01-29T12:26:40.426Z,100931.09
2023-01-29T12:29:34.326Z,100923.47
2023-01-29T12:32:12.690Z,100929.78
2023-01-29T12:37:46.243Z,100915.97
2023-01-29T12:40:16.175Z,100914.22
2023-01-29T12:42:48.277Z,100910.00
2023-01-29T12:45:25.347Z,100903.16
2023-01-29T12:47:56.299Z,100905.75
2023-01-29T12:50:29.267Z,100907.41
2023-01-29T12:55:45.418Z,100905.31
2023-01-29T12:58:16.416Z,100913.91
2023-01-29T13:00:46.577Z,100905.31
2023-01-29T13:08:37.538Z,100893.41
2023-01-29T13:11:12.265Z,100889.09
2023-01-29T13:13:54.145Z,100881.38
2023-01-29T13:16:26.604Z,100888.28
2023-01-29T13:18:58.018Z,100886.63
2023-01-29T13:21:29.529Z,100885.81
2023-01-29T13:24:01.821Z,100871.06
2023-01-29T13:26:29.098Z,100869.31
2023-01-29T13:28:56.142Z,100869.25
2023-01-29T13:31:34.938Z,100867.34
2023-01-29T13:34:28.528Z,100860.50
2023-01-29T13:36:59.434Z,100846.78
2023-01-29T13:39:34.327Z,100845.78
2023-01-29T13:42:03.855Z,100844.88
2023-01-29T13:44:37.881Z,100829.38
2023-01-29T13:47:07.989Z,100836.19
2023-01-29T13:49:40.429Z,100819.84
2023-01-29T13:55:21.450Z,100815.56
2023-01-29T13:57:50.141Z,100813.81
2023-01-29T14:11:35.926Z,100809.84
2023-01-29T14:14:42.307Z,100810.63
2023-01-29T14:17:09.027Z,100808.91
2023-01-29T14:19:35.644Z,100795.06
2023-01-29T14:22:02.405Z,100786.38
2023-01-29T14:24:31.145Z,100786.34
2023-01-29T14:26:57.920Z,100787.25
2023-01-29T14:29:34.795Z,100789.88
2023-01-29T14:32:24.999Z,100786.34
2023-01-29T14:34:55.712Z,100787.91
2023-01-29T14:37:31.356Z,100774.25
2023-01-29T14:40:07.636Z,100779.44
2023-01-29T14:42:37.960Z,100770.84
2023-01-29T14:53:16.751Z,100764.09
2023-01-29T14:55:48.717Z,100744.34
2023-01-29T14:58:27.444Z,100746.97
2023-01-29T15:00:59.118Z,100728.06
2023-01-29T15:03:46.238Z,100728.03
2023-01-29T15:06:24.200Z,100724.63
2023-01-29T15:09:03.080Z,100735.84
2023-01-29T15:11:40.932Z,100726.38
2023-01-29T15:14:23.965Z,100722.91
2023-01-29T15:19:35.376Z,100709.97
2023-01-29T15:22:08.757Z,100716.00
2023-01-29T15:24:37.254Z,100720.34
2023-01-29T15:27:06.639Z,100716.00
2023-01-29T15:29:33.858Z,100707.34
2023-01-29T15:32:01.745Z,100702.13
2023-01-29T15:34:28.538Z,100703.84
2023-01-29T15:36:55.355Z,100705.53
2023-01-29T15:39:24.674Z,100707.25
2023-01-29T15:42:09.329Z,100701.97
2023-01-29T15:44:35.952Z,100697.66
2023-01-29T15:47:02.887Z,100708.84
2023-01-29T15:49:33.307Z,100708.81
2023-01-29T15:52:05.391Z,100707.03
2023-01-29T15:54:34.636Z,100717.31
2023-01-29T15:57:03.087Z,100707.75
2023-01-29T15:59:34.753Z,100696.47
2023-01-29T16:02:28.543Z,100698.06
2023-01-29T16:04:55.861Z,100695.50
2023-01-29T16:07:22.809Z,100692.84
2023-01-29T16:09:51.422Z,100691.06
2023-01-29T16:12:18.637Z,100690.16
2023-01-29T16:14:46.219Z,100675.41
2023-01-29T16:20:01.337Z,100654.63
2023-01-29T16:22:34.811Z,100657.13
2023-01-29T16:25:04.798Z,100654.50
2023-01-29T16:27:32.928Z,100642.41
2023-01-29T16:30:02.245Z,100634.56
2023-01-29T16:32:30.730Z,100636.22
2023-01-29T16:35:00.107Z,100638.72
2023-01-29T16:40:28.419Z,100636.75
2023-01-29T16:46:05.514Z,100641.75
2023-01-29T16:48:35.392Z,100645.16
2023-01-29T16:51:31.447Z,100646.66
2023-01-29T16:54:03.494Z,100641.50
2023-01-29T16:56:32.443Z,100644.88
2023-01-29T16:59:00.324Z,100655.09
2023-01-29T17:01:29.715Z,100636.13
2023-01-29T17:04:07.643Z,100648.88
2023-01-29T17:06:35.246Z,100630.78
2023-01-29T17:09:04.060Z,100615.22
2023-01-29T17:11:35.017Z,100620.22
2023-01-29T17:14:02.024Z,100611.59
2023-01-29T17:16:32.082Z,100606.34
2023-01-29T17:19:00.697Z,100609.66
2023-01-29T17:21:29.343Z,100612.25
2023-01-29T17:23:56.038Z,100609.59
2023-01-29T17:26:24.705Z,100610.38
2023-01-29T17:28:52.707Z,100622.34
2023-01-29T17:31:19.386Z,100611.97
2023-01-29T17:33:46.282Z,100607.63
2023-01-29T17:36:16.436Z,100631.63
2023-01-29T17:38:43.748Z,100641.84
2023-01-29T17:43:47.553Z,100670.88
2023-01-29T17:46:16.736Z,100654.50
2023-01-29T17:48:44.098Z,100679.31
2023-01-29T17:51:16.019Z,100677.50
2023-01-29T17:53:46.230Z,100692.03
2023-01-29T17:56:30.277Z,100688.44
2023-01-29T17:58:56.900Z,100685.00
2023-01-29T18:01:23.812Z,100710.63
2023-01-29T18:03:50.778Z,100722.59
2023-01-29T18:06:27.373Z,100713.09
2023-01-29T18:08:54.266Z,100704.59
2023-01-29T18:11:20.809Z,100714.88
2023-01-29T18:13:47.366Z,100702.91
2023-01-29T18:16:14.139Z,100706.41
2023-01-29T18:18:41.257Z,100716.69
2023-01-29T18:21:08.081Z,100739.03
2023-01-29T18:23:35.799Z,100731.28
2023-01-29T18:26:02.524Z,100715.00
2023-01-29T18:28:29.856Z,100710.75
2023-01-29T18:30:56.668Z,100716.78
2023-01-29T18:33:25.027Z,100714.16
2023-01-29T18:35:51.724Z,100702.97
2023-01-29T18:38:19.101Z,100708.97
2023-01-29T18:40:46.491Z,100706.31
2023-01-29T18:43:15.596Z,100710.63
2023-01-29T18:45:42.816Z,100697.66
2023-01-29T18:48:09.508Z,100702.81
2023-01-29T18:50:36.877Z,100697.66
2023-01-29T18:53:04.709Z,100702.78
2023-01-29T18:55:31.407Z,100702.78
2023-01-29T18:58:27.465Z,100695.94
2023-01-29T19:00:47.165Z,100706.19
2023-01-29T19:03:13.913Z,100695.84
2023-01-29T19:05:40.467Z,100686.41
2023-01-29T19:08:07.633Z,100692.41
2023-01-29T19:10:34.812Z,100682.03
2023-01-29T19:13:02.182Z,100669.00
2023-01-29T19:15:28.973Z,100662.00
2023-01-29T19:17:56.747Z,100647.28
2023-01-29T19:20:23.484Z,100651.53
2023-01-29T19:22:50.395Z,100654.81
2023-01-29T19:25:19.721Z,100643.59
2023-01-29T19:27:46.899Z,100630.66
2023-01-29T19:30:13.705Z,100633.16
2023-01-29T19:32:40.716Z,100635.69
2023-01-29T19:35:07.515Z,100639.94
2023-01-29T19:37:34.133Z,100632.22
2023-01-29T19:40:00.675Z,100623.56
2023-01-29T19:42:28.267Z,100620.88
2023-01-29T19:44:54.887Z,100614.94
2023-01-29T19:47:22.308Z,100604.59
2023-01-29T19:49:49.898Z,100594.44
2023-01-29T19:52:51.076Z,100591.19
2023-01-29T19:55:21.424Z,100596.44
2023-01-29T19:57:49.540Z,100600.94
2023-01-29T20:00:18.653Z,100592.47
2023-01-29T20:02:46.109Z,100602.91
2023-01-29T20:05:17.419Z,100601.34
2023-01-29T20:07:45.366Z,100599.72
2023-01-29T20:10:17.911Z,100599.81
2023-01-29T20:12:46.664Z,100608.47
2023-01-29T20:15:15.051Z,100608.47
2023-01-29T20:17:42.189Z,100620.59
2023-01-29T20:20:10.626Z,100617.13
2023-01-29T20:22:37.291Z,100618.94
2023-01-29T20:25:04.496Z,100618.94
2023-01-29T20:27:32.263Z,100609.47
2023-01-29T20:29:59.757Z,100610.28
2023-01-29T20:32:26.953Z,100599.91
2023-01-29T20:34:54.357Z,100596.44
2023-01-29T20:37:21.826Z,100588.53
2023-01-29T20:39:49.123Z,100585.88
2023-01-29T20:42:15.911Z,100584.00
2023-01-29T20:44:42.574Z,100583.06
2023-01-29T20:47:09.521Z,100578.72
2023-01-29T20:49:36.305Z,100578.63
2023-01-29T20:52:03.821Z,100580.31
2023-01-29T20:54:33.424Z,100581.97
2023-01-29T20:57:00.905Z,100573.28
2023-01-29T20:59:29.615Z,100565.56
2023-01-29T21:01:56.784Z,100558.66
2023-01-29T21:04:23.967Z,100543.19
2023-01-29T21:06:51.573Z,100560.31
2023-01-29T21:09:18.815Z,100554.25
2023-01-29T21:11:46.631Z,100557.63
2023-01-29T21:14:14.733Z,100552.44
2023-01-29T21:16:42.204Z,100562.78
2023-01-29T21:19:10.659Z,100555.06
2023-01-29T21:21:37.529Z,100549.03
2023-01-29T21:24:04.984Z,100554.16
2023-01-29T21:26:31.680Z,100541.34
2023-01-29T21:28:58.349Z,100550.78
2023-01-29T21:31:25.015Z,100547.34
2023-01-29T21:33:51.668Z,100543.03
2023-01-29T21:36:18.292Z,100525.03
2023-01-29T21:38:44.864Z,100540.47
2023-01-29T21:41:11.874Z,100531.84
2023-01-29T21:43:39.068Z,100526.75
2023-01-29T21:46:16.323Z,100543.06
2023-01-29T21:48:43.277Z,100549.91
2023-01-29T21:51:09.928Z,100568.75
2023-01-29T21:53:36.844Z,100576.56
2023-01-29T21:56:05.606Z,100568.94
2023-01-29T21:58:32.305Z,100569.03
2023-01-29T22:01:35.126Z,100566.53
2023-01-29T22:03:47.419Z,100557.22
2023-01-29T22:06:14.464Z,100549.56
2023-01-29T22:08:41.045Z,100548.75
2023-01-29T22:11:08.835Z,100547.91
2023-01-29T22:13:35.594Z,100550.38
2023-01-29T22:16:02.211Z,100549.53
2023-01-29T22:18:28.937Z,100546.09
2023-01-29T22:20:56.677Z,100549.56
2023-01-29T22:23:24.273Z,100554.72
2023-01-29T22:25:50.974Z,100543.56
2023-01-29T22:28:18.615Z,100537.63
2023-01-29T22:30:45.632Z,100547.97
2023-01-29T22:33:12.814Z,100544.56
2023-01-29T22:35:39.676Z,100534.31
2023-01-29T22:38:06.679Z,100535.16
2023-01-29T22:40:33.246Z,100545.47
2023-01-29T22:42:59.843Z,100539.50
2023-01-29T22:45:27.116Z,100545.53
2023-01-29T22:47:53.652Z,100548.16
2023-01-29T22:50:20.587Z,100542.13
2023-01-29T22:52:54.105Z,100536.13
2023-01-29T22:55:21.038Z,100531.00
2023-01-29T22:57:50.063Z,100534.44
2023-01-29T23:00:17.748Z,100537.88
2023-01-29T23:02:46.832Z,100525.91
2023-01-29T23:05:13.463Z,100531.97
2023-01-29T23:07:40.375Z,100537.16
2023-01-29T23:10:07.764Z,100537.25
2023-01-29T23:12:34.441Z,100534.75
2023-01-29T23:15:01.110Z,100524.47
2023-01-29T23:17:27.999Z,100520.22
2023-01-29T23:19:54.581Z,100525.50
2023-01-29T23:22:23.865Z,100524.69
2023-01-29T23:24:50.761Z,100525.56
2023-01-29T23:27:17.810Z,100517.91
2023-01-29T23:29:47.024Z,100505.94
2023-01-29T23:32:17.810Z,100503.41
2023-01-29T23:34:44.718Z,100507.72
2023-01-29T23:37:11.616Z,100498.31
2023-01-29T23:39:38.366Z,100491.50
2023-01-29T23:42:05.419Z,100486.41
2023-01-29T23:44:32.098Z,100482.09
2023-01-29T23:46:59.324Z,100482.94
2023-01-29T23:49:26.153Z,100490.72
2023-01-29T23:51:53.173Z,100496.75
2023-01-29T23:54:20.019Z,100497.59
2023-01-29T23:56:46.662Z,100495.88
2023-01-29T23:59:13.444Z,100489.88
